createdAt,value
2023-01-10T00:00:15.999Z,100116.88
2023-01-10T00:03:21.293Z,100116.88
2023-01-10T00:06:26.937Z,100129.16
2023-01-10T00:09:30.284Z,100133.50
2023-01-10T00:12:52.656Z,100132.88
2023-01-10T00:15:56.996Z,100134.31
2023-01-10T00:19:00.285Z,100138.78
2023-01-10T00:22:14.640Z,100135.19
2023-01-10T00:25:19.913Z,100137.78
2023-01-10T00:28:24.335Z,100131.13
2023-01-10T00:31:27.434Z,100130.19
2023-01-10T00:34:31.113Z,100130.91
2023-01-10T00:37:35.174Z,100136.09
2023-01-10T00:40:38.155Z,100137.78
2023-01-10T00:43:59.661Z,100133.59
2023-01-10T00:47:02.830Z,100132.59
2023-01-10T00:50:08.513Z,100143.78
2023-01-10T00:53:11.568Z,100143.66
2023-01-10T00:56:17.320Z,100157.25
2023-01-10T00:59:21.861Z,100158.09
2023-01-10T01:02:25.121Z,100150.94
2023-01-10T01:05:28.623Z,100160.38
2023-01-10T01:08:31.747Z,100177.63
2023-01-10T01:11:36.640Z,100182.63
2023-01-10T01:14:41.060Z,100194.84
2023-01-10T01:17:44.311Z,100203.34
2023-01-10T01:20:48.185Z,100212.03
2023-01-10T01:23:51.892Z,100212.03
2023-01-10T01:26:56.605Z,100219.59
2023-01-10T01:30:01.160Z,100229.75
2023-01-10T01:33:04.449Z,100237.53
2023-01-10T01:36:13.355Z,100255.00
2023-01-10T01:39:16.387Z,100258.59
2023-01-10T01:42:28.653Z,100264.59
2023-01-10T01:45:39.694Z,100267.19
2023-01-10T01:48:44.587Z,100271.66
2023-01-10T01:51:53.115Z,100275.41
2023-01-10T01:55:00.211Z,100279.69
2023-01-10T01:58:08.146Z,100287.06
2023-01-10T02:01:16.101Z,100280.97
2023-01-10T02:04:23.362Z,100285.41
2023-01-10T02:07:30.612Z,100294.09
2023-01-10T02:10:40.381Z,100298.44
2023-01-10T02:13:45.647Z,100293.63
2023-01-10T02:16:50.220Z,100296.66
2023-01-10T02:20:00.079Z,100295.00
2023-01-10T02:23:50.263Z,100312.38
2023-01-10T02:27:16.013Z,100304.41
2023-01-10T02:30:52.040Z,100308.59
2023-01-10T02:34:03.300Z,100309.59
2023-01-10T02:37:15.399Z,100313.00
2023-01-10T02:40:25.635Z,100315.69
2023-01-10T02:43:41.281Z,100320.97
2023-01-10T02:46:47.251Z,100320.50
2023-01-10T02:49:53.335Z,100326.31
2023-01-10T02:53:06.510Z,100332.31
2023-01-10T02:57:02.997Z,100329.00
2023-01-10T03:00:33.795Z,100331.56
2023-01-10T03:03:44.451Z,100340.06
2023-01-10T03:06:59.206Z,100337.59
2023-01-10T03:10:08.685Z,100342.28
2023-01-10T03:13:18.075Z,100355.06
2023-01-10T03:16:28.421Z,100371.41
2023-01-10T03:19:42.389Z,100378.44
2023-01-10T03:22:48.745Z,100383.66
2023-01-10T03:25:58.228Z,100386.81
2023-01-10T03:29:11.088Z,100390.34
2023-01-10T03:32:18.512Z,100397.53
2023-01-10T03:35:24.425Z,100404.19
2023-01-10T03:38:38.544Z,100401.63
2023-01-10T03:41:51.933Z,100406.78
2023-01-10T03:45:02.955Z,100405.28
2023-01-10T03:48:08.252Z,100406.13
2023-01-10T03:51:12.825Z,100412.31
2023-01-10T03:54:18.597Z,100422.47
2023-01-10T03:57:24.170Z,100416.56
2023-01-10T04:00:27.343Z,100430.22
2023-01-10T04:03:30.355Z,100439.69
2023-01-10T04:06:33.311Z,100447.34
2023-01-10T04:09:37.658Z,100453.34
2023-01-10T04:12:40.596Z,100453.50
2023-01-10T04:15:43.764Z,100468.03
2023-01-10T04:18:46.771Z,100469.88
2023-01-10T04:21:50.179Z,100481.06
2023-01-10T04:24:54.764Z,100482.72
2023-01-10T04:27:57.802Z,100485.41
2023-01-10T04:31:00.803Z,100488.81
2023-01-10T04:34:04.172Z,100512.09
2023-01-10T04:37:07.265Z,100511.28
2023-01-10T04:40:17.055Z,100508.75
2023-01-10T04:43:20.380Z,100511.09
2023-01-10T04:46:23.827Z,100523.19
2023-01-10T04:49:26.888Z,100527.63
2023-01-10T04:52:30.255Z,100527.78
2023-01-10T04:55:35.287Z,100538.97
2023-01-10T04:58:39.525Z,100552.72
2023-01-10T05:01:42.984Z,100551.72
2023-01-10T05:04:46.207Z,100570.47
2023-01-10T05:07:49.644Z,100573.84
2023-01-10T05:10:53.984Z,100568.81
2023-01-10T05:14:08.084Z,100574.91
2023-01-10T05:17:13.842Z,100591.19
2023-01-10T05:20:19.079Z,100591.94
2023-01-10T05:23:25.323Z,100601.53
2023-01-10T05:26:32.522Z,100610.22
2023-01-10T05:29:36.695Z,100618.16
2023-01-10T05:32:41.665Z,100616.63
2023-01-10T05:35:44.615Z,100617.38
2023-01-10T05:38:47.839Z,100626.91
2023-01-10T05:42:08.137Z,100637.25
2023-01-10T05:45:12.488Z,100644.06
2023-01-10T05:48:15.483Z,100645.69
2023-01-10T05:51:18.565Z,100645.59
2023-01-10T05:54:24.265Z,100654.28
2023-01-10T05:57:28.706Z,100663.59
2023-01-10T06:00:31.825Z,100665.44
2023-01-10T06:03:34.832Z,100663.59
2023-01-10T06:06:38.024Z,100673.94
2023-01-10T06:09:42.989Z,100680.72
2023-01-10T06:12:49.832Z,100688.41
2023-01-10T06:15:54.657Z,100692.75
2023-01-10T06:18:57.845Z,100704.84
2023-01-10T06:22:01.096Z,100705.69
2023-01-10T06:25:10.115Z,100706.50
2023-01-10T06:28:17.131Z,100721.88
2023-01-10T06:31:22.466Z,100735.56
2023-01-10T06:34:37.628Z,100737.22
2023-01-10T06:37:50.188Z,100745.91
2023-01-10T06:40:55.867Z,100754.50
2023-01-10T06:44:00.556Z,100759.78
2023-01-10T06:47:03.778Z,100772.53
2023-01-10T06:50:11.076Z,100780.06
2023-01-10T06:53:14.799Z,100782.56
2023-01-10T06:56:22.444Z,100784.41
2023-01-10T06:59:27.117Z,100795.50
2023-01-10T07:02:30.619Z,100797.94
2023-01-10T07:05:36.305Z,100808.44
2023-01-10T07:08:40.386Z,100805.84
2023-01-10T07:11:45.975Z,100810.88
2023-01-10T07:14:50.278Z,100812.72
2023-01-10T07:17:58.434Z,100825.66
2023-01-10T07:21:09.458Z,100836.91
2023-01-10T07:24:14.348Z,100856.75
2023-01-10T07:27:17.887Z,100856.09
2023-01-10T07:30:25.239Z,100862.25
2023-01-10T07:33:31.176Z,100858.00
2023-01-10T07:36:37.382Z,100863.41
2023-01-10T07:39:42.277Z,100876.19
2023-01-10T07:42:45.373Z,100877.13
2023-01-10T07:45:49.740Z,100882.44
2023-01-10T07:48:55.321Z,100886.06
2023-01-10T07:51:58.296Z,100899.94
2023-01-10T07:55:01.277Z,100898.25
2023-01-10T07:58:04.288Z,100905.09
2023-01-10T08:01:08.805Z,100918.22
2023-01-10T08:04:11.830Z,100917.13
2023-01-10T08:07:14.788Z,100923.81
2023-01-10T08:10:18.939Z,100930.84
2023-01-10T08:13:22.107Z,100926.41
2023-01-10T08:16:26.562Z,100936.00
2023-01-10T08:19:30.193Z,100937.59
2023-01-10T08:22:33.213Z,100942.56
2023-01-10T08:25:38.720Z,100951.06
2023-01-10T08:28:42.520Z,100954.47
2023-01-10T08:31:46.803Z,100963.09
2023-01-10T08:34:49.840Z,100964.00
2023-01-10T08:37:52.893Z,100958.78
2023-01-10T08:40:58.091Z,100966.38
2023-01-10T08:44:01.467Z,100979.38
2023-01-10T08:47:05.819Z,100984.38
2023-01-10T08:50:11.144Z,100990.50
2023-01-10T08:53:14.674Z,100992.25
2023-01-10T08:56:17.855Z,100994.81
2023-01-10T08:59:20.955Z,100990.66
2023-01-10T09:02:25.373Z,101010.13
2023-01-10T09:05:31.959Z,101017.75
2023-01-10T09:08:35.318Z,101020.25
2023-01-10T09:11:40.523Z,101020.03
2023-01-10T09:14:44.797Z,101023.06
2023-01-10T09:17:49.812Z,101023.69
2023-01-10T09:20:54.627Z,101036.94
2023-01-10T09:23:57.771Z,101040.06
2023-01-10T09:27:01.592Z,101037.31
2023-01-10T09:30:10.780Z,101036.19
2023-01-10T09:33:15.699Z,101041.69
2023-01-10T09:36:18.718Z,101050.94
2023-01-10T09:39:21.971Z,101057.50
2023-01-10T09:42:40.613Z,101066.03
2023-01-10T09:45:55.131Z,101072.88
2023-01-10T09:49:09.350Z,101075.94
2023-01-10T09:52:23.320Z,101082.25
2023-01-10T09:55:32.952Z,101082.19
2023-01-10T09:58:38.468Z,101085.81
2023-01-10T10:01:41.612Z,101087.19
2023-01-10T10:05:09.734Z,101081.03
2023-01-10T10:08:18.215Z,101080.13
2023-01-10T10:11:57.910Z,101079.06
2023-01-10T10:15:15.454Z,101072.66
2023-01-10T10:18:32.568Z,101082.47
2023-01-10T10:21:47.013Z,101077.06
2023-01-10T10:25:05.741Z,101080.63
2023-01-10T10:28:31.830Z,101085.00
2023-01-10T10:31:55.533Z,101088.13
2023-01-10T10:35:03.401Z,101096.75
2023-01-10T10:38:20.828Z,101097.81
2023-01-10T10:41:33.673Z,101107.31
2023-01-10T10:44:42.129Z,101114.47
2023-01-10T10:47:52.270Z,101123.19
2023-01-10T10:51:05.761Z,101116.25
2023-01-10T10:54:14.571Z,101127.44
2023-01-10T10:57:35.405Z,101132.31
2023-01-10T11:00:42.258Z,101141.13
2023-01-10T11:03:49.981Z,101146.63
2023-01-10T11:06:54.007Z,101166.44
2023-01-10T11:10:11.006Z,101172.53
2023-01-10T11:13:25.254Z,101185.41
2023-01-10T11:16:32.281Z,101181.09
2023-01-10T11:19:37.779Z,101172.22
2023-01-10T11:22:48.321Z,101163.25
2023-01-10T11:25:52.723Z,101160.81
2023-01-10T11:29:18.057Z,101160.59
2023-01-10T11:32:27.336Z,101167.03
2023-01-10T11:35:33.721Z,101178.34
2023-01-10T11:38:40.197Z,101181.63
2023-01-10T11:41:44.517Z,101182.75
2023-01-10T11:44:47.550Z,101177.78
2023-01-10T11:47:54.653Z,101181.69
2023-01-10T11:50:57.797Z,101202.03
2023-01-10T11:54:05.388Z,101209.59
2023-01-10T11:57:17.155Z,101213.50
2023-01-10T12:00:24.596Z,101218.97
2023-01-10T12:03:31.001Z,101217.66
2023-01-10T12:06:37.018Z,101214.31
2023-01-10T12:09:45.471Z,101218.94
2023-01-10T12:12:57.266Z,101213.44
2023-01-10T12:16:20.148Z,101214.41
2023-01-10T12:19:23.214Z,101211.22
2023-01-10T12:22:32.112Z,101214.41
2023-01-10T12:25:39.173Z,101200.84
2023-01-10T12:28:49.106Z,101209.16
2023-01-10T12:31:56.932Z,101226.50
2023-01-10T12:35:04.953Z,101215.69
2023-01-10T12:38:24.621Z,101235.81
2023-01-10T12:41:53.379Z,101230.78
2023-01-10T12:45:04.969Z,101232.03
2023-01-10T12:48:18.506Z,101251.88
2023-01-10T12:51:26.368Z,101253.19
2023-01-10T12:54:31.603Z,101259.59
2023-01-10T12:57:46.467Z,101260.97
2023-01-10T13:00:58.896Z,101256.28
2023-01-10T13:04:07.457Z,101270.38
2023-01-10T13:07:13.631Z,101273.19
2023-01-10T13:10:22.491Z,101280.66
2023-01-10T13:13:35.186Z,101274.78
2023-01-10T13:17:16.513Z,101281.72
2023-01-10T13:20:38.966Z,101291.19
2023-01-10T13:23:50.276Z,101293.41
2023-01-10T13:26:56.764Z,101296.25
2023-01-10T13:30:00.420Z,101298.91
2023-01-10T13:33:08.791Z,101298.06
2023-01-10T13:36:18.598Z,101299.34
2023-01-10T13:39:29.076Z,101302.09
2023-01-10T13:42:51.752Z,101318.97
2023-01-10T13:46:46.740Z,101317.00
2023-01-10T13:49:52.848Z,101313.94
2023-01-10T13:52:56.537Z,101320.13
2023-01-10T13:56:02.713Z,101315.91
2023-01-10T13:59:33.093Z,101311.56
2023-01-10T14:02:45.582Z,101313.63
2023-01-10T14:05:50.405Z,101307.81
2023-01-10T14:08:56.418Z,101305.31
2023-01-10T14:12:03.971Z,101309.47
2023-01-10T14:15:23.173Z,101314.38
2023-01-10T14:18:35.383Z,101326.13
2023-01-10T14:21:45.745Z,101321.78
2023-01-10T14:24:53.653Z,101314.38
2023-01-10T14:27:59.005Z,101314.63
2023-01-10T14:31:05.774Z,101318.47
2023-01-10T14:34:12.839Z,101319.69
2023-01-10T14:37:27.446Z,101320.84
2023-01-10T14:40:41.061Z,101322.72
2023-01-10T14:43:52.041Z,101309.00
2023-01-10T14:46:58.007Z,101304.13
2023-01-10T14:50:02.035Z,101313.69
2023-01-10T14:53:26.547Z,101321.47
2023-01-10T14:56:38.302Z,101318.97
2023-01-10T14:59:41.288Z,101325.75
2023-01-10T15:02:46.049Z,101318.97
2023-01-10T15:05:52.208Z,101318.25
2023-01-10T15:09:03.691Z,101316.44
2023-01-10T15:12:12.407Z,101320.22
2023-01-10T15:15:20.553Z,101304.13
2023-01-10T15:18:36.238Z,101309.47
2023-01-10T15:21:44.105Z,101313.78
2023-01-10T15:25:01.847Z,101320.09
2023-01-10T15:28:16.071Z,101320.03
2023-01-10T15:31:20.841Z,101318.78
2023-01-10T15:34:30.116Z,101315.84
2023-01-10T15:37:40.815Z,101323.59
2023-01-10T15:40:45.547Z,101318.91
2023-01-10T15:43:50.234Z,101330.19
2023-01-10T15:46:58.370Z,101328.63
2023-01-10T15:50:01.458Z,101326.66
2023-01-10T15:53:10.903Z,101335.22
2023-01-10T15:56:20.780Z,101329.91
2023-01-10T15:59:28.397Z,101331.72
2023-01-10T16:02:36.020Z,101334.31
2023-01-10T16:05:39.075Z,101335.63
2023-01-10T16:08:42.263Z,101332.41
2023-01-10T16:12:08.662Z,101338.16
2023-01-10T16:15:19.072Z,101328.50
2023-01-10T16:18:22.967Z,101327.75
2023-01-10T16:21:29.630Z,101327.66
2023-01-10T16:24:35.460Z,101314.78
2023-01-10T16:27:39.891Z,101321.94
2023-01-10T16:30:46.848Z,101310.16
2023-01-10T16:33:50.334Z,101313.44
2023-01-10T16:36:53.718Z,101307.63
2023-01-10T16:39:57.661Z,101316.31
2023-01-10T16:43:21.608Z,101307.06
2023-01-10T16:46:25.766Z,101306.28
2023-01-10T16:49:32.393Z,101318.75
2023-01-10T16:52:35.839Z,101318.88
2023-01-10T16:55:42.254Z,101318.75
2023-01-10T16:58:48.263Z,101313.66
2023-01-10T17:01:55.392Z,101313.69
2023-01-10T17:04:59.387Z,101311.97
2023-01-10T17:08:02.747Z,101311.38
2023-01-10T17:11:12.347Z,101301.19
2023-01-10T17:14:18.266Z,101308.41
2023-01-10T17:17:21.377Z,101310.16
2023-01-10T17:20:27.984Z,101295.47
2023-01-10T17:23:31.953Z,101297.16
2023-01-10T17:26:35.033Z,101297.38
2023-01-10T17:29:41.974Z,101300.28
2023-01-10T17:32:45.119Z,101315.22
2023-01-10T17:35:48.319Z,101307.66
2023-01-10T17:38:56.317Z,101311.16
2023-01-10T17:42:02.616Z,101310.44
2023-01-10T17:45:11.086Z,101314.97
2023-01-10T17:48:16.969Z,101302.91
2023-01-10T17:51:21.625Z,101305.72
2023-01-10T17:54:24.870Z,101300.50
2023-01-10T17:57:31.003Z,101302.28
2023-01-10T18:00:35.419Z,101299.66
2023-01-10T18:03:39.442Z,101298.78
2023-01-10T18:06:42.521Z,101297.13
2023-01-10T18:09:47.888Z,101294.69
2023-01-10T18:12:53.516Z,101296.28
2023-01-10T18:15:58.372Z,101297.38
2023-01-10T18:19:01.360Z,101287.19
2023-01-10T18:22:30.499Z,101283.69
2023-01-10T18:25:39.165Z,101287.38
2023-01-10T18:28:45.417Z,101290.88
2023-01-10T18:31:49.767Z,101284.88
2023-01-10T18:34:52.946Z,101283.22
2023-01-10T18:37:57.329Z,101278.19
2023-01-10T18:41:00.491Z,101275.53
2023-01-10T18:44:03.515Z,101275.84
2023-01-10T18:47:08.923Z,101263.84
2023-01-10T18:50:12.546Z,101269.00
2023-01-10T18:53:19.082Z,101270.13
2023-01-10T18:56:25.791Z,101265.28
2023-01-10T18:59:31.641Z,101264.56
2023-01-10T19:02:36.374Z,101268.34
2023-01-10T19:05:39.753Z,101260.78
2023-01-10T19:08:43.770Z,101256.59
2023-01-10T19:11:47.274Z,101256.00
2023-01-10T19:14:50.278Z,101254.53
2023-01-10T19:17:58.355Z,101246.78
2023-01-10T19:21:01.704Z,101251.91
2023-01-10T19:24:10.312Z,101240.38
2023-01-10T19:27:13.337Z,101238.00
2023-01-10T19:30:19.324Z,101229.59
2023-01-10T19:33:23.685Z,101228.78
2023-01-10T19:36:27.003Z,101229.63
2023-01-10T19:39:30.485Z,101222.19
2023-01-10T19:42:35.334Z,101227.78
2023-01-10T19:45:42.130Z,101213.88
2023-01-10T19:48:46.512Z,101212.19
2023-01-10T19:51:54.793Z,101206.47
2023-01-10T19:55:02.158Z,101210.03
2023-01-10T19:58:05.500Z,101206.53
2023-01-10T20:01:20.628Z,101197.31
2023-01-10T20:04:28.628Z,101203.63
2023-01-10T20:07:37.536Z,101201.22
2023-01-10T20:10:43.771Z,101194.53
2023-01-10T20:13:55.476Z,101185.06
2023-01-10T20:16:58.570Z,101182.50
2023-01-10T20:20:08.132Z,101180.88
2023-01-10T20:23:18.824Z,101183.53
2023-01-10T20:26:30.828Z,101177.03
2023-01-10T20:29:34.352Z,101172.78
2023-01-10T20:32:37.565Z,101171.94
2023-01-10T20:35:44.654Z,101173.44
2023-01-10T20:38:48.834Z,101171.94
2023-01-10T20:41:52.257Z,101161.63
2023-01-10T20:44:55.394Z,101165.91
2023-01-10T20:47:58.398Z,101157.47
2023-01-10T20:51:02.976Z,101165.31
2023-01-10T20:54:08.481Z,101158.69
2023-01-10T20:57:13.151Z,101155.16
2023-01-10T21:00:17.984Z,101151.97
2023-01-10T21:03:23.551Z,101159.03
2023-01-10T21:06:28.202Z,101148.03
2023-01-10T21:09:31.244Z,101142.06
2023-01-10T21:12:34.375Z,101145.69
2023-01-10T21:15:40.680Z,101149.00
2023-01-10T21:18:44.888Z,101150.16
2023-01-10T21:21:50.884Z,101142.34
2023-01-10T21:24:54.099Z,101141.50
2023-01-10T21:27:57.047Z,101141.59
2023-01-10T21:31:00.522Z,101132.34
2023-01-10T21:34:03.518Z,101129.91
2023-01-10T21:37:07.903Z,101125.53
2023-01-10T21:40:12.424Z,101123.06
2023-01-10T21:43:15.556Z,101123.84
2023-01-10T21:46:18.800Z,101117.88
2023-01-10T21:49:22.444Z,101111.97
2023-01-10T21:52:26.911Z,101112.09
2023-01-10T21:55:29.972Z,101098.31
2023-01-10T21:58:32.937Z,101101.78
2023-01-10T22:01:35.958Z,101096.69
2023-01-10T22:04:39.110Z,101096.75
2023-01-10T22:07:44.887Z,101095.91
2023-01-10T22:10:47.849Z,101100.00
2023-01-10T22:13:51.887Z,101089.69
2023-01-10T22:16:55.343Z,101084.59
2023-01-10T22:19:58.287Z,101081.19
2023-01-10T22:23:02.850Z,101082.97
2023-01-10T22:26:08.907Z,101078.47
2023-01-10T22:29:11.989Z,101076.66
2023-01-10T22:32:15.316Z,101085.31
2023-01-10T22:35:18.609Z,101063.78
2023-01-10T22:38:22.977Z,101065.38
2023-01-10T22:41:27.435Z,101068.75
2023-01-10T22:44:30.719Z,101069.59
2023-01-10T22:47:36.636Z,101063.59
2023-01-10T22:50:39.586Z,101060.81
2023-01-10T22:53:43.976Z,101061.66
2023-01-10T22:56:48.059Z,101057.38
2023-01-10T22:59:51.115Z,101058.97
2023-01-10T23:02:54.276Z,101058.06
2023-01-10T23:05:58.175Z,101052.00
2023-01-10T23:09:02.544Z,101055.31
2023-01-10T23:12:07.061Z,101050.16
2023-01-10T23:15:11.505Z,101045.75
2023-01-10T23:18:16.440Z,101042.25
2023-01-10T23:21:19.791Z,101049.09
2023-01-10T23:24:29.374Z,101039.63
2023-01-10T23:27:32.467Z,101039.69
2023-01-10T23:30:35.564Z,101035.28
2023-01-10T23:33:38.930Z,101032.72
2023-01-10T23:36:41.924Z,101035.28
2023-01-10T23:39:46.236Z,101028.41
2023-01-10T23:42:49.197Z,101022.53
2023-01-10T23:45:52.525Z,101013.91
2023-01-10T23:48:55.524Z,101019.13
2023-01-10T23:51:58.482Z,101007.09
2023-01-10T23:55:03.315Z,101000.25
2023-01-10T23:58:07.011Z,100993.41
